Time;durP1;ratioP1;P1;durP2;ratioP2;P2;SDS_P1;SDS_P2;PMS_P1;PMS_P2;Temp;Humidity;BMP_temperature;BMP_pressure;BME280_temperature;BME280_humidity;BME280_pressure;Samples;Min_cycle;Max_cycle;Signal;HPM_P1;HPM_P2
2022/04/15 00:02:41;;;;;;;;;;;;;;;19.72;37.00;101400.01;103949;1314;76609;-84
2022/04/15 00:06:10;;;;;;;;;;;;;;;19.71;37.01;101396.99;104130;1314;62027;-85
2022/04/15 00:08:49;;;;;;;;;;;;;;;;;;;;;
2022/04/15 00:11:33;;;;;;;;;;;;;;;19.72;37.03;101394.67;104211;1314;72334;-81
2022/04/15 00:14:22;;;;;;;;;;;;;;;19.72;37.08;101395.38;104187;1313;76740;-83
2022/04/15 00:17:07;;;;;;;;;;;;;;;19.72;37.09;101387.89;104322;1306;62105;-86
2022/04/15 00:19:51;;;;;;;;;;;;;;;19.72;37.04;101389.84;104752;1306;61971;-83
2022/04/15 00:22:26;;;;;;;;;;;;;;;19.71;37.06;101387.02;104762;1306;73043;-82
2022/04/15 00:25:06;;;;;;;;;;;;;;;19.71;37.09;101385.60;104743;1306;75605;-83
2022/04/15 00:27:34;;;;;;;;;;;;;;;19.71;36.95;101384.71;104657;1306;62041;-89
2022/04/15 00:30:24;;;;;;;;;;;;;;;19.70;37.08;101383.29;104678;1307;61931;-86
2022/04/15 00:33:21;;;;;;;;;;;;;;;;;;;;;
2022/04/15 00:36:10;;;;;;;;;;;;;;;19.70;37.09;101381.50;104691;1306;75569;-87
2022/04/15 00:38:58;;;;;;;;;;;;;;;19.70;37.21;101381.52;104653;1306;61974;-86
2022/04/15 00:41:46;;;;;;;;;;;;;;;19.70;37.10;101377.95;104767;1306;61916;-84
2022/04/15 00:44:21;;;;;;;;;;;;;;;;;;;;;
2022/04/15 00:47:01;;;;;;;;;;;;;;;19.70;37.24;101378.69;104658;1307;76616;-83
2022/04/15 00:49:46;;;;;;;;;;;;;;;;;;;;;
2022/04/15 00:52:28;;;;;;;;;;;;;;;19.70;37.13;101377.27;104832;1305;62079;-85
2022/04/15 00:55:25;;;;;;;;;;;;;;;19.69;37.25;101375.69;104322;1311;71545;-84
2022/04/15 00:57:55;;;;;;;;;;;;;;;19.69;37.24;101376.77;104260;1311;75599;-82
2022/04/15 01:00:30;;;;;;;;;;;;;;;19.69;37.28;101375.69;104090;1311;62259;-82
2022/04/15 01:03:06;;;;;;;;;;;;;;;19.70;37.37;101375.66;104255;1311;62096;-81
2022/04/15 01:06:03;;;;;;;;;;;;;;;19.70;37.43;101376.38;104282;1311;72708;-83
2022/04/15 01:08:41;;;;;;;;;;;;;;;19.70;37.33;101377.42;104370;1311;76333;-83
2022/04/15 01:11:26;;;;;;;;;;;;;;;19.70;37.32;101381.39;104330;1311;62207;-88
2022/04/15 01:14:02;;;;;;;;;;;;;;;19.69;37.28;101379.61;104271;1313;62100;-82
2022/04/15 01:16:51;;;;;;;;;;;;;;;19.69;37.35;101381.76;104324;1311;72608;-82
2022/04/15 01:19:30;;;;;;;;;;;;;;;;;;;;;
2022/04/15 01:22:40;;;;;;;;;;;;;;;19.69;37.30;101377.48;104409;1311;62007;-84
2022/04/15 01:25:26;;;;;;;;;;;;;;;19.69;37.42;101376.21;104381;1311;62206;-83
2022/04/15 01:28:17;;;;;;;;;;;;;;;;;;;;;
2022/04/15 01:31:11;;;;;;;;;;;;;;;19.69;37.46;101376.92;104332;1311;75687;-87
2022/04/15 01:34:17;;;;;;;;;;;;;;;19.69;37.50;101373.56;104321;1311;62019;-86
2022/04/15 01:37:05;;;;;;;;;;;;;;;19.68;37.39;101369.13;104300;1313;62088;-84
2022/04/15 01:39:56;;;;;;;;;;;;;;;19.69;37.56;101369.64;104321;1311;73929;-84
2022/04/15 01:42:41;;;;;;;;;;;;;;;19.68;37.53;101361.27;104366;1311;75869;-84
2022/04/15 01:45:28;;;;;;;;;;;;;;;19.69;37.48;101358.57;104303;1311;62028;-83
2022/04/15 01:48:26;;;;;;;;;;;;;;;19.68;37.50;101356.10;104340;1313;62056;-88
2022/04/15 01:51:29;;;;;;;;;;;;;;;19.68;37.49;101349.52;103691;1319;72817;-82
2022/04/15 01:53:55;;;;;;;;;;;;;;;19.68;37.45;101346.10;103006;1323;75564;-84
2022/04/15 01:59:34;;;;;;;;;;;;;;;19.68;37.46;101336.45;102566;1329;62046;-84
2022/04/15 02:02:31;;;;;;;;;;;;;;;19.68;37.49;101335.58;102555;1332;73795;-87
2022/04/15 02:05:26;;;;;;;;;;;;;;;19.68;37.47;101334.16;102510;1332;77182;-84
2022/04/15 02:08:11;;;;;;;;;;;;;;;19.68;37.53;101330.05;102552;1332;61973;-86
2022/04/15 02:11:08;;;;;;;;;;;;;;;19.68;37.46;101330.80;102611;1326;63898;-84
2022/04/15 02:13:57;;;;;;;;;;;;;;;19.68;37.61;101329.89;102715;1328;74680;-84
2022/04/15 02:17:06;;;;;;;;;;;;;;;;;;;;;
2022/04/15 02:19:44;;;;;;;;;;;;;;;19.68;37.59;101326.68;102066;1338;62122;-86
2022/04/15 02:22:57;;;;;;;;;;;;;;;19.68;37.55;101327.58;102027;1338;62142;-87
2022/04/15 02:25:38;;;;;;;;;;;;;;;19.67;37.59;101330.45;101880;1341;73846;-85
2022/04/15 02:28:17;;;;;;;;;;;;;;;19.67;37.68;101330.80;101943;1335;75994;-81
2022/04/15 02:31:00;;;;;;;;;;;;;;;19.67;37.58;101327.59;102172;1332;62238;-84
2022/04/15 02:34:04;;;;;;;;;;;;;;;;;;;;;
2022/04/15 02:37:01;;;;;;;;;;;;;;;19.67;37.72;101324.22;102607;1325;72937;-84
2022/04/15 02:39:48;;;;;;;;;;;;;;;19.67;37.68;101320.48;102768;1325;76684;-81
2022/04/15 02:42:27;;;;;;;;;;;;;;;19.67;37.65;101318.84;102773;1325;63268;-84
2022/04/15 02:45:31;;;;;;;;;;;;;;;19.67;37.71;101319.05;102822;1325;62129;-84
2022/04/15 02:48:19;;;;;;;;;;;;;;;19.66;37.70;101322.64;102606;1329;72745;-85
2022/04/15 02:51:25;;;;;;;;;;;;;;;;;;;;;
2022/04/15 02:54:05;;;;;;;;;;;;;;;19.67;37.84;101323.70;102865;1323;62126;-83
2022/04/15 02:56:47;;;;;;;;;;;;;;;19.66;37.71;101322.45;103374;1322;62080;-88
2022/04/15 03:00:03;;;;;;;;;;;;;;;;;;;;;
2022/04/15 03:02:58;;;;;;;;;;;;;;;19.66;37.78;101318.73;103716;1314;76482;-86
2022/04/15 03:05:56;;;;;;;;;;;;;;;19.66;37.86;101317.30;104209;1314;61985;-83
2022/04/15 03:08:59;;;;;;;;;;;;;;;19.65;37.88;101318.95;104217;1314;60422;-86
2022/04/15 03:11:43;;;;;;;;;;;;;;;;;;;;;
2022/04/15 03:14:49;;;;;;;;;;;;;;;19.66;37.96;101316.61;104181;1314;77152;-85
2022/04/15 03:17:38;;;;;;;;;;;;;;;19.65;37.90;101315.91;103727;1319;62113;-83
2022/04/15 03:20:34;;;;;;;;;;;;;;;19.65;37.93;101316.98;102983;1325;62127;-85
2022/04/15 03:23:29;;;;;;;;;;;;;;;19.65;37.92;101317.02;102982;1325;74282;-84
2022/04/15 03:26:29;;;;;;;;;;;;;;;19.65;37.93;101318.80;103532;1317;73511;-84
2022/04/15 03:29:44;;;;;;;;;;;;;;;;;;;;;
2022/04/15 03:32:44;;;;;;;;;;;;;;;;;;;;;
2022/04/15 03:35:30;;;;;;;;;;;;;;;19.65;37.98;101317.20;103662;1317;73117;-83
2022/04/15 03:40:49;;;;;;;;;;;;;;;19.65;37.94;101319.16;103600;1319;62155;-84
2022/04/15 03:43:47;;;;;;;;;;;;;;;19.65;37.85;101317.02;103653;1319;62116;-83
2022/04/15 03:46:24;;;;;;;;;;;;;;;19.66;38.02;101310.85;103820;1317;73997;-82
2022/04/15 03:49:27;;;;;;;;;;;;;;;19.69;38.02;101314.11;103574;1317;78595;-83
2022/04/15 03:52:32;;;;;;;;;;;;;;;;;;;;;
2022/04/15 03:55:25;;;;;;;;;;;;;;;19.75;37.90;101307.50;103222;1320;62089;-80
2022/04/15 03:58:00;;;;;;;;;;;;;;;19.79;37.98;101309.23;103818;1315;71722;-79
2022/04/15 04:00:50;;;;;;;;;;;;;;;19.83;37.91;101307.27;104020;1316;75700;-84
2022/04/15 04:03:32;;;;;;;;;;;;;;;19.86;37.95;101306.20;104160;1315;62314;-86
2022/04/15 04:06:07;;;;;;;;;;;;;;;19.90;37.88;101308.27;104187;1316;61995;-84
2022/04/15 04:08:35;;;;;;;;;;;;;;;19.93;37.86;101307.36;104181;1317;72972;-85
2022/04/15 04:11:23;;;;;;;;;;;;;;;;;;;;;
2022/04/15 04:14:03;;;;;;;;;;;;;;;20.00;37.97;101308.58;103852;1316;61994;-89
2022/04/15 04:16:45;;;;;;;;;;;;;;;20.05;37.99;101308.49;103870;1316;62310;-84
2022/04/15 04:19:34;;;;;;;;;;;;;;;20.08;37.90;101307.79;103995;1316;73800;-83
2022/04/15 04:22:33;;;;;;;;;;;;;;;20.11;37.91;101308.48;103647;1318;73271;-81
2022/04/15 04:25:08;;;;;;;;;;;;;;;20.14;37.99;101308.67;103688;1319;61858;-84
2022/04/15 04:28:02;;;;;;;;;;;;;;;20.16;37.90;101312.83;104392;1311;62347;-88
2022/04/15 04:30:38;;;;;;;;;;;;;;;;;;;;;
2022/04/15 04:33:23;;;;;;;;;;;;;;;20.21;37.97;101314.31;104353;1311;75717;-82
2022/04/15 04:36:16;;;;;;;;;;;;;;;20.25;37.92;101315.53;104391;1311;62093;-82
2022/04/15 04:38:54;;;;;;;;;;;;;;;20.27;37.83;101317.91;104398;1311;63093;-84
2022/04/15 04:41:57;;;;;;;;;;;;;;;20.29;37.88;101321.04;104357;1311;72912;-85
2022/04/15 04:44:36;;;;;;;;;;;;;;;;;;;;;
2022/04/15 04:47:02;;;;;;;;;;;;;;;20.30;37.60;101327.02;104408;1311;61999;-86
2022/04/15 04:50:08;;;;;;;;;;;;;;;20.30;37.63;101325.44;104358;1311;61450;-85
2022/04/15 04:53:03;;;;;;;;;;;;;;;;;;;;;
2022/04/15 04:55:26;;;;;;;;;;;;;;;20.29;37.26;101324.62;104355;1311;75670;-86
2022/04/15 04:57:54;;;;;;;;;;;;;;;20.28;37.43;101326.62;104434;1311;62094;-84
2022/04/15 05:00:33;;;;;;;;;;;;;;;;;;;;;
2022/04/15 05:03:11;;;;;;;;;;;;;;;;;;;;;
2022/04/15 05:05:44;;;;;;;;;;;;;;;20.23;37.30;101330.63;104776;1305;75675;-84
2022/04/15 05:08:18;;;;;;;;;;;;;;;20.21;37.52;101330.25;104807;1305;62343;-84
2022/04/15 05:11:04;;;;;;;;;;;;;;;20.20;37.30;101333.16;104540;1306;62185;-83
2022/04/15 05:13:36;;;;;;;;;;;;;;;20.18;37.31;101331.48;104201;1312;74301;-81
2022/04/15 05:16:02;;;;;;;;;;;;;;;20.17;37.29;101333.52;104246;1313;75751;-82
2022/04/15 05:18:50;;;;;;;;;;;;;;;20.16;37.26;101337.31;104300;1313;60979;-83
2022/04/15 05:21:17;;;;;;;;;;;;;;;20.15;37.38;101334.52;104298;1313;61993;-82
2022/04/15 05:23:46;;;;;;;;;;;;;;;20.15;37.38;101336.15;104241;1313;73879;-81
2022/04/15 05:26:29;;;;;;;;;;;;;;;20.13;37.33;101333.54;104219;1313;76632;-84
2022/04/15 05:29:02;;;;;;;;;;;;;;;20.13;37.29;101335.21;104182;1314;61973;-82
2022/04/15 05:31:42;;;;;;;;;;;;;;;20.12;37.10;101332.73;104181;1313;61929;-84
2022/04/15 05:34:17;;;;;;;;;;;;;;;20.11;37.11;101331.89;104278;1313;73807;-82
2022/04/15 05:36:52;;;;;;;;;;;;;;;20.10;37.11;101334.23;104273;1313;75593;-83
2022/04/15 05:39:35;;;;;;;;;;;;;;;20.10;37.21;101334.98;104198;1313;62005;-83
2022/04/15 05:42:41;;;;;;;;;;;;;;;20.09;37.15;101330.17;104304;1313;61946;-86
2022/04/15 05:45:26;;;;;;;;;;;;;;;;;;;;;
2022/04/15 05:48:02;;;;;;;;;;;;;;;20.10;37.25;101331.60;104061;1313;76553;-86
2022/04/15 05:50:31;;;;;;;;;;;;;;;20.10;37.14;101326.78;104240;1305;62007;-87
2022/04/15 05:53:08;;;;;;;;;;;;;;;20.10;37.06;101324.63;104824;1305;61993;-84
2022/04/15 05:55:39;;;;;;;;;;;;;;;20.10;37.03;101322.32;104502;1305;73798;-80
2022/04/15 05:58:23;;;;;;;;;;;;;;;20.10;37.03;101321.73;104504;1305;75696;-82
2022/04/15 06:00:57;;;;;;;;;;;;;;;20.11;36.99;101322.43;104796;1305;61963;-84
2022/04/15 06:03:26;;;;;;;;;;;;;;;20.12;36.92;101322.92;104561;1306;62091;-82
2022/04/15 06:06:24;;;;;;;;;;;;;;;20.12;37.02;101326.14;104617;1306;73297;-88
2022/04/15 06:08:49;;;;;;;;;;;;;;;20.12;37.05;101323.60;104498;1306;74425;-83
2022/04/15 06:11:55;;;;;;;;;;;;;;;20.13;37.08;101318.91;104532;1304;60188;-81
2022/04/15 06:14:35;;;;;;;;;;;;;;;20.13;36.94;101317.48;104642;1305;62033;-81
2022/04/15 06:17:10;;;;;;;;;;;;;;;20.13;37.04;101317.48;104683;1304;73995;-82
2022/04/15 06:19:36;;;;;;;;;;;;;;;20.13;37.14;101318.36;104867;1305;76613;-82
2022/04/15 06:22:03;;;;;;;;;;;;;;;20.14;37.00;101324.77;104654;1304;62021;-81
2022/04/15 06:24:49;;;;;;;;;;;;;;;20.14;37.16;101317.95;104160;1313;62198;-81
2022/04/15 06:27:19;;;;;;;;;;;;;;;20.16;36.93;101317.51;104200;1314;72788;-83
2022/04/15 06:29:55;;;;;;;;;;;;;;;20.16;37.03;101316.25;104272;1313;76600;-87
2022/04/15 06:32:45;;;;;;;;;;;;;;;20.16;36.84;101312.84;104252;1313;62115;-86
2022/04/15 06:35:31;;;;;;;;;;;;;;;20.16;36.85;101317.33;104307;1313;62263;-83
2022/04/15 06:38:10;;;;;;;;;;;;;;;20.17;36.93;101314.95;103392;1319;74309;-83
2022/04/15 06:40:45;;;;;;;;;;;;;;;20.18;36.80;101319.71;103352;1319;76808;-83
2022/04/15 06:43:40;;;;;;;;;;;;;;;20.17;36.80;101317.77;103567;1319;62129;-87
2022/04/15 06:46:05;;;;;;;;;;;;;;;20.18;36.73;101317.94;103690;1319;62045;-82
2022/04/15 06:49:14;;;;;;;;;;;;;;;20.18;36.73;101318.64;102657;1319;1283502;-83
2022/04/15 06:51:48;;;;;;;;;;;;;;;20.18;36.72;101323.80;103691;1319;75661;-81
2022/04/15 06:54:19;;;;;;;;;;;;;;;20.18;36.75;101323.95;103703;1319;62157;-85
2022/04/15 06:57:05;;;;;;;;;;;;;;;20.18;36.72;101318.05;103667;1317;62131;-82
2022/04/15 06:59:46;;;;;;;;;;;;;;;20.19;36.72;101315.33;103664;1318;72825;-83
2022/04/15 07:02:41;;;;;;;;;;;;;;;20.20;36.67;101315.83;103786;1317;76319;-84
2022/04/15 07:05:27;;;;;;;;;;;;;;;;;;;;;
2022/04/15 07:08:24;;;;;;;;;;;;;;;20.20;36.65;101311.16;103198;1322;62058;-83
2022/04/15 07:11:02;;;;;;;;;;;;;;;20.20;36.62;101312.93;103405;1320;72686;-82
2022/04/15 07:13:49;;;;;;;;;;;;;;;20.20;36.66;101311.15;103252;1323;74343;-83
2022/04/15 07:16:48;;;;;;;;;;;;;;;20.21;36.63;101306.46;103347;1320;62065;-83
2022/04/15 07:19:23;;;;;;;;;;;;;;;20.21;36.63;101308.41;103356;1320;61874;-81
2022/04/15 07:21:48;;;;;;;;;;;;;;;20.21;36.53;101310.90;103171;1321;73849;-82
2022/04/15 07:24:30;;;;;;;;;;;;;;;20.22;36.57;101308.02;103091;1320;77200;-82
2022/04/15 07:27:26;;;;;;;;;;;;;;;20.22;36.64;101307.11;103508;1320;62068;-85
2022/04/15 07:30:01;;;;;;;;;;;;;;;20.23;36.67;101303.64;103577;1318;62073;-83
2022/04/15 07:32:35;;;;;;;;;;;;;;;20.23;36.57;101298.45;103632;1319;72856;-79
2022/04/15 07:35:06;;;;;;;;;;;;;;;20.24;36.55;101300.55;103727;1317;74425;-82
2022/04/15 07:37:43;;;;;;;;;;;;;;;20.24;36.58;101299.99;103338;1319;63583;-83
2022/04/15 07:40:27;;;;;;;;;;;;;;;20.25;36.52;101298.89;103299;1320;61115;-84
2022/04/15 07:43:03;;;;;;;;;;;;;;;;;;;;;
2022/04/15 07:45:30;;;;;;;;;;;;;;;20.26;36.71;101291.13;103435;1314;76806;-84
2022/04/15 07:48:19;;;;;;;;;;;;;;;20.27;36.57;101286.44;104065;1314;61978;-81
2022/04/15 07:50:45;;;;;;;;;;;;;;;20.27;36.53;101285.39;104192;1313;62082;-82
2022/04/15 07:53:14;;;;;;;;;;;;;;;20.27;36.63;101283.23;103931;1309;72660;-81
2022/04/15 07:55:46;;;;;;;;;;;;;;;20.28;36.67;101281.42;104278;1308;75679;-81
2022/04/15 07:58:29;;;;;;;;;;;;;;;20.27;36.74;101278.41;104275;1311;62154;-81
2022/04/15 08:00:55;;;;;;;;;;;;;;;20.27;36.69;101275.55;104411;1308;61977;-79
2022/04/15 08:03:29;;;;;;;;;;;;;;;20.28;36.57;101273.91;104528;1305;62184;-78
2022/04/15 08:06:24;;;;;;;;;;;;;;;20.27;36.44;101277.13;104131;1311;73332;-78
2022/04/15 08:09:00;;;;;;;;;;;;;;;20.28;36.38;101278.18;104219;1311;62089;-80
2022/04/15 08:11:26;;;;;;;;;;;;;;;20.27;36.40;101279.29;104147;1311;62240;-80
2022/04/15 08:13:52;;;;;;;;;;;;;;;20.28;36.30;101277.14;104110;1311;62199;-80
2022/04/15 08:16:28;;;;;;;;;;;;;;;20.27;36.43;101277.84;104167;1310;76667;-81
2022/04/15 08:18:56;;;;;;;;;;;;;;;20.28;36.42;101278.00;104253;1311;62526;-82
2022/04/15 08:21:29;;;;;;;;;;;;;;;20.29;36.55;101274.38;104206;1311;61989;-83
2022/04/15 08:24:25;;;;;;;;;;;;;;;20.28;36.85;101273.16;104240;1310;74166;-86
2022/04/15 08:27:03;;;;;;;;;;;;;;;20.27;36.95;101272.14;104258;1311;75835;-84
2022/04/15 08:29:49;;;;;;;;;;;;;;;20.26;37.33;101268.06;104290;1311;62072;-81
2022/04/15 08:32:45;;;;;;;;;;;;;;;20.26;37.33;101266.66;104385;1311;62111;-83
2022/04/15 08:35:13;;;;;;;;;;;;;;;20.25;37.55;101267.05;104125;1310;73998;-80
2022/04/15 08:37:38;;;;;;;;;;;;;;;20.25;37.60;101256.17;104012;1312;75392;-81
2022/04/15 08:40:13;;;;;;;;;;;;;;;20.24;37.93;101252.27;104098;1310;62109;-83
2022/04/15 08:42:42;;;;;;;;;;;;;;;20.25;37.86;101247.25;104197;1310;62208;-80
2022/04/15 08:45:10;;;;;;;;;;;;;;;20.25;37.93;101246.52;104446;1306;73881;-86
2022/04/15 08:47:39;;;;;;;;;;;;;;;20.24;37.88;101245.31;104596;1306;76060;-80
2022/04/15 08:50:11;;;;;;;;;;;;;;;20.25;38.12;101241.52;104560;1305;62086;-80
2022/04/15 08:52:51;;;;;;;;;;;;;;;20.25;38.14;101238.67;104409;1305;62098;-81
2022/04/15 08:55:27;;;;;;;;;;;;;;;20.25;38.23;101237.59;104507;1305;73167;-81
2022/04/15 08:57:55;;;;;;;;;;;;;;;20.25;38.11;101235.46;104495;1306;75757;-79
2022/04/15 09:00:24;;;;;;;;;;;;;;;20.25;38.33;101229.19;104366;1305;61944;-80
2022/04/15 09:02:50;;;;;;;;;;;;;;;20.25;38.35;101232.23;104474;1306;62042;-80
2022/04/15 09:05:20;;;;;;;;;;;;;;;20.25;38.29;101226.30;104365;1305;62111;-80
2022/04/15 09:08:03;;;;;;;;;;;;;;;20.25;38.28;101227.02;104530;1305;75436;-82
2022/04/15 09:10:38;;;;;;;;;;;;;;;20.26;38.29;101226.80;104533;1305;62023;-84
2022/04/15 09:13:09;;;;;;;;;;;;;;;20.26;38.30;101219.47;104395;1305;61964;-83
2022/04/15 09:15:38;;;;;;;;;;;;;;;20.26;38.46;101214.65;104327;1305;72932;-81
2022/04/15 09:18:09;;;;;;;;;;;;;;;20.27;38.33;101211.92;104257;1305;75923;-81
2022/04/15 09:20:43;;;;;;;;;;;;;;;20.27;38.37;101210.84;104431;1308;61937;-82
2022/04/15 09:23:19;;;;;;;;;;;;;;;20.27;38.17;101204.58;104519;1305;62109;-85
2022/04/15 09:25:48;;;;;;;;;;;;;;;20.28;38.32;101200.98;104531;1305;72918;-80
2022/04/15 09:28:14;;;;;;;;;;;;;;;20.29;38.32;101199.51;104517;1305;75852;-80
2022/04/15 09:30:40;;;;;;;;;;;;;;;20.29;38.31;101197.51;104560;1305;62217;-80
2022/04/15 09:33:24;;;;;;;;;;;;;;;20.29;38.35;101192.69;104619;1304;61442;-83
2022/04/15 09:36:00;;;;;;;;;;;;;;;20.30;38.51;101192.82;104968;1305;73684;-81
2022/04/15 09:38:44;;;;;;;;;;;;;;;20.30;38.39;101189.59;104709;1305;75524;-81
2022/04/15 09:41:23;;;;;;;;;;;;;;;20.31;38.48;101185.44;104583;1305;62916;-82
2022/04/15 09:43:52;;;;;;;;;;;;;;;20.31;38.46;101178.80;104646;1305;63143;-82
2022/04/15 09:46:30;;;;;;;;;;;;;;;20.31;38.46;101177.36;104590;1305;72860;-81
2022/04/15 09:49:03;;;;;;;;;;;;;;;20.31;38.28;101170.73;104342;1308;75588;-80
2022/04/15 09:51:56;;;;;;;;;;;;;;;20.31;38.31;101165.90;104736;1305;61938;-84
2022/04/15 09:54:31;;;;;;;;;;;;;;;20.31;38.34;101170.38;104165;1311;61971;-81
2022/04/15 09:57:05;;;;;;;;;;;;;;;20.32;38.23;101166.58;104136;1314;72947;-80
2022/04/15 09:59:30;;;;;;;;;;;;;;;20.31;38.33;101166.08;104080;1314;75747;-80
2022/04/15 10:02:13;;;;;;;;;;;;;;;20.32;38.19;101166.95;104195;1311;62242;-81
2022/04/15 10:04:39;;;;;;;;;;;;;;;20.32;38.35;101162.82;104255;1311;61995;-80
2022/04/15 10:07:07;;;;;;;;;;;;;;;20.32;38.20;101155.16;104056;1311;62088;-80
2022/04/15 10:09:35;;;;;;;;;;;;;;;20.32;38.18;101156.36;105083;1311;75557;-80
2022/04/15 10:12:01;;;;;;;;;;;;;;;20.33;38.24;101160.77;104052;1314;62288;-80
2022/04/15 10:14:27;;;;;;;;;;;;;;;20.34;38.22;101157.55;103880;1314;62096;-81
2022/04/15 10:16:58;;;;;;;;;;;;;;;20.34;38.22;101151.44;104055;1312;62219;-82
2022/04/15 10:19:33;;;;;;;;;;;;;;;20.34;38.20;101147.66;104168;1311;75361;-81
2022/04/15 10:22:06;;;;;;;;;;;;;;;20.34;38.17;101136.61;104139;1311;61975;-80
2022/04/15 10:24:35;;;;;;;;;;;;;;;20.34;38.22;101134.82;104075;1311;62096;-81
2022/04/15 10:27:21;;;;;;;;;;;;;;;20.34;38.08;101131.59;104052;1313;72883;-81
2022/04/15 10:30:12;;;;;;;;;;;;;;;20.34;38.14;101127.65;104022;1312;75919;-80
2022/04/15 10:33:09;;;;;;;;;;;;;;;20.34;38.25;101120.35;104809;1305;62067;-82
2022/04/15 10:35:41;;;;;;;;;;;;;;;20.34;38.17;101116.37;103996;1314;61882;-81
2022/04/15 10:38:36;;;;;;;;;;;;;;;20.35;38.08;101115.27;104076;1313;72920;-81
2022/04/15 10:41:24;;;;;;;;;;;;;;;20.35;38.13;101112.06;103519;1317;77122;-81
2022/04/15 10:44:01;;;;;;;;;;;;;;;20.35;38.15;101107.77;103231;1319;60214;-81
2022/04/15 10:46:32;;;;;;;;;;;;;;;20.35;38.18;101105.23;103540;1318;62376;-84
2022/04/15 10:49:00;;;;;;;;;;;;;;;20.35;38.07;101103.63;103328;1320;71790;-81
2022/04/15 10:51:46;;;;;;;;;;;;;;;20.35;38.08;101098.61;103467;1320;76736;-81
2022/04/15 10:54:50;;;;;;;;;;;;;;;20.35;38.14;101097.90;103506;1317;62020;-80
2022/04/15 10:57:19;;;;;;;;;;;;;;;20.35;38.03;101095.92;102759;1326;62212;-81
2022/04/15 11:02:58;;;;;;;;;;;;;;;20.36;37.98;101097.01;102793;1326;75555;-80
2022/04/15 11:06:15;;;;;;;;;;;;;;;;;;;;;
2022/04/15 11:08:46;;;;;;;;;;;;;;;20.36;37.80;101087.85;102901;1326;62018;-81
2022/04/15 11:11:19;;;;;;;;;;;;;;;20.35;37.92;101081.45;102923;1325;73979;-84
2022/04/15 11:14:05;;;;;;;;;;;;;;;20.35;37.92;101076.65;103406;1319;75657;-82
2022/04/15 11:17:13;;;;;;;;;;;;;;;20.36;37.84;101071.77;102704;1325;62045;-84
2022/04/15 11:19:59;;;;;;;;;;;;;;;20.36;37.82;101073.20;103729;1320;61972;-79
2022/04/15 11:22:50;;;;;;;;;;;;;;;20.36;37.80;101066.58;103684;1319;72863;-86
2022/04/15 11:25:32;;;;;;;;;;;;;;;20.36;37.79;101065.13;103671;1318;76444;-84
2022/04/15 11:28:37;;;;;;;;;;;;;;;;;;;;;
2022/04/15 11:31:08;;;;;;;;;;;;;;;20.35;37.52;101060.19;104356;1312;62000;-81
2022/04/15 11:34:04;;;;;;;;;;;;;;;20.34;37.54;101060.06;104178;1314;72875;-80
2022/04/15 11:37:10;;;;;;;;;;;;;;;20.34;37.63;101058.84;103500;1320;74383;-82
2022/04/15 11:39:56;;;;;;;;;;;;;;;20.34;37.55;101052.95;103353;1322;62267;-83
2022/04/15 11:42:43;;;;;;;;;;;;;;;20.33;37.49;101052.82;103569;1319;62226;-82
2022/04/15 11:45:35;;;;;;;;;;;;;;;20.33;37.50;101051.04;102972;1323;71781;-80
2022/04/15 11:48:29;;;;;;;;;;;;;;;20.33;37.59;101046.24;102978;1323;76641;-80
2022/04/15 11:51:09;;;;;;;;;;;;;;;20.33;37.55;101042.66;102869;1323;62062;-83
2022/04/15 11:54:04;;;;;;;;;;;;;;;;;;;;;
2022/04/15 11:56:43;;;;;;;;;;;;;;;20.32;37.55;101038.95;103100;1322;72940;-81
2022/04/15 11:59:20;;;;;;;;;;;;;;;20.32;37.53;101040.38;103107;1322;75803;-80
2022/04/15 12:01:58;;;;;;;;;;;;;;;20.32;37.53;101038.58;103081;1322;62332;-80
2022/04/15 12:04:23;;;;;;;;;;;;;;;20.32;37.50;101036.09;103079;1322;62166;-81
2022/04/15 12:07:24;;;;;;;;;;;;;;;20.32;37.56;101031.45;102640;1328;74364;-81
2022/04/15 12:09:52;;;;;;;;;;;;;;;20.32;37.56;101031.43;102508;1327;76882;-81
2022/04/15 12:12:23;;;;;;;;;;;;;;;20.32;37.61;101028.23;102609;1328;64134;-80
2022/04/15 12:15:04;;;;;;;;;;;;;;;20.31;37.53;101026.30;102897;1319;62010;-84
2022/04/15 12:17:34;;;;;;;;;;;;;;;20.32;37.61;101013.95;103252;1317;74101;-80
2022/04/15 12:20:06;;;;;;;;;;;;;;;20.32;37.55;101013.06;103127;1322;75260;-83
2022/04/15 12:22:31;;;;;;;;;;;;;;;20.31;37.60;101006.46;103226;1316;63730;-80
2022/04/15 12:25:16;;;;;;;;;;;;;;;20.31;37.67;100998.61;103964;1314;62133;-81
2022/04/15 12:28:00;;;;;;;;;;;;;;;;;;;;;
2022/04/15 12:30:46;;;;;;;;;;;;;;;;;;;;;
2022/04/15 12:33:22;;;;;;;;;;;;;;;20.31;37.60;100991.10;104016;1315;61963;-85
2022/04/15 12:36:17;;;;;;;;;;;;;;;20.31;37.59;100985.91;103931;1316;62027;-85
2022/04/15 12:39:21;;;;;;;;;;;;;;;20.31;37.48;100979.17;104113;1313;72701;-82
2022/04/15 12:41:51;;;;;;;;;;;;;;;20.30;37.58;100976.34;103215;1322;74593;-80
2022/04/15 12:44:39;;;;;;;;;;;;;;;20.30;37.61;100968.11;103572;1314;62113;-82
2022/04/15 12:47:17;;;;;;;;;;;;;;;20.30;37.58;100967.74;104218;1313;62118;-84
2022/04/15 12:49:54;;;;;;;;;;;;;;;20.30;37.58;100972.23;104168;1314;72915;-79
2022/04/15 12:52:36;;;;;;;;;;;;;;;20.31;37.52;100970.77;104234;1313;76580;-81
2022/04/15 12:55:11;;;;;;;;;;;;;;;20.30;37.59;100969.72;104225;1313;62138;-84
2022/04/15 12:57:51;;;;;;;;;;;;;;;20.30;37.71;100964.02;104194;1313;62412;-82
2022/04/15 13:00:30;;;;;;;;;;;;;;;20.31;37.58;100958.77;104049;1312;73752;-80
2022/04/15 13:02:56;;;;;;;;;;;;;;;20.31;37.66;100955.54;103550;1314;76725;-80
2022/04/15 13:05:31;;;;;;;;;;;;;;;20.31;37.39;100945.71;104110;1313;62170;-80
2022/04/15 13:08:21;;;;;;;;;;;;;;;20.31;37.51;100944.81;104136;1313;62024;-84
2022/04/15 13:10:50;;;;;;;;;;;;;;;20.32;37.49;100941.39;104094;1314;73726;-82
2022/04/15 13:13:37;;;;;;;;;;;;;;;20.32;37.42;100940.83;104435;1305;76002;-86
2022/04/15 13:16:38;;;;;;;;;;;;;;;20.33;37.59;100942.41;104560;1306;62060;-81
2022/04/15 13:19:04;;;;;;;;;;;;;;;20.33;37.57;100934.34;104655;1306;61999;-82
2022/04/15 13:22:02;;;;;;;;;;;;;;;20.33;37.67;100929.66;104769;1305;71639;-83
2022/04/15 13:24:46;;;;;;;;;;;;;;;20.33;37.50;100927.69;104563;1306;75446;-80
2022/04/15 13:27:21;;;;;;;;;;;;;;;;;;;;;
2022/04/15 13:29:52;;;;;;;;;;;;;;;20.34;37.61;100922.12;104505;1306;62165;-82
2022/04/15 13:32:23;;;;;;;;;;;;;;;20.34;37.56;100920.32;104396;1307;73429;-81
2022/04/15 13:34:52;;;;;;;;;;;;;;;20.34;37.58;100917.45;104404;1307;76027;-83
2022/04/15 13:37:18;;;;;;;;;;;;;;;20.35;37.54;100916.52;104415;1306;62370;-85
2022/04/15 13:39:51;;;;;;;;;;;;;;;20.35;37.52;100910.97;104446;1306;62133;-81
2022/04/15 13:42:19;;;;;;;;;;;;;;;20.35;37.62;100910.57;104524;1307;72752;-83
2022/04/15 13:44:48;;;;;;;;;;;;;;;20.35;37.49;100903.07;104455;1308;74578;-79
2022/04/15 13:47:23;;;;;;;;;;;;;;;20.36;37.49;100899.63;104459;1306;62114;-80
2022/04/15 13:49:52;;;;;;;;;;;;;;;20.36;37.36;100901.94;104383;1308;62028;-80
2022/04/15 13:58:21;;;;;;;;;;;;;;;20.36;37.53;100892.83;104477;1305;61880;-81
2022/04/15 14:00:49;;;;;;;;;;;;;;;20.36;37.49;100886.54;104454;1305;62013;-80
2022/04/15 14:03:27;;;;;;;;;;;;;;;20.37;37.60;100885.45;104512;1305;73757;-81
2022/04/15 14:06:12;;;;;;;;;;;;;;;20.37;37.54;100888.30;104632;1304;75705;-81
2022/04/15 14:09:14;;;;;;;;;;;;;;;;;;;;;
2022/04/15 14:12:01;;;;;;;;;;;;;;;20.38;37.63;100882.54;104667;1305;62070;-81
2022/04/15 14:14:58;;;;;;;;;;;;;;;;;;;;;
2022/04/15 14:17:33;;;;;;;;;;;;;;;20.37;37.56;100870.91;104661;1305;76774;-80
2022/04/15 14:20:03;;;;;;;;;;;;;;;20.37;37.51;100864.13;104428;1306;62196;-81
2022/04/15 14:22:29;;;;;;;;;;;;;;;20.38;37.70;100860.89;104755;1305;60464;-81
2022/04/15 14:25:05;;;;;;;;;;;;;;;;;;;;;
2022/04/15 14:27:40;;;;;;;;;;;;;;;20.38;37.74;100862.66;104726;1305;75509;-81
2022/04/15 14:30:18;;;;;;;;;;;;;;;20.38;37.48;100856.58;104654;1305;62072;-81
2022/04/15 14:32:59;;;;;;;;;;;;;;;;;;;;;
2022/04/15 14:35:28;;;;;;;;;;;;;;;20.38;37.65;100851.38;104804;1305;71697;-80
2022/04/15 14:38:22;;;;;;;;;;;;;;;20.39;37.56;100850.83;104540;1305;76556;-84